createdAt,value
2022-11-21T00:03:33.062Z,1.12
2022-11-21T00:05:59.723Z,1.00
2022-11-21T00:08:26.426Z,1.10
2022-11-21T00:10:53.088Z,1.20
2022-11-21T00:13:20.973Z,1.12
2022-11-21T00:15:48.378Z,1.21
2022-11-21T00:18:15.771Z,1.19
2022-11-21T00:20:43.546Z,1.23
2022-11-21T00:23:10.999Z,1.22
2022-11-21T00:25:38.913Z,1.07
2022-11-21T00:28:06.099Z,1.23
2022-11-21T00:30:32.989Z,1.22
2022-11-21T00:32:59.799Z,1.14
2022-11-21T00:35:27.235Z,1.10
2022-11-21T00:37:54.055Z,1.10
2022-11-21T00:40:20.758Z,1.34
2022-11-21T00:42:47.442Z,1.15
2022-11-21T00:45:15.580Z,1.15
2022-11-21T00:47:43.998Z,1.13
2022-11-21T00:50:11.118Z,1.13
2022-11-21T00:52:37.849Z,1.07
2022-11-21T00:55:04.732Z,1.12
2022-11-21T00:57:31.438Z,1.21
2022-11-21T00:59:58.182Z,1.20
2022-11-21T01:02:24.909Z,1.12
2022-11-21T01:04:51.598Z,1.13
2022-11-21T01:07:18.310Z,1.22
2022-11-21T01:09:45.079Z,1.25
2022-11-21T01:12:11.880Z,1.25
2022-11-21T01:14:38.616Z,1.34
2022-11-21T01:17:05.401Z,1.29
2022-11-21T01:19:32.255Z,1.34
2022-11-21T01:21:58.990Z,1.32
2022-11-21T01:24:25.877Z,1.31
2022-11-21T01:26:54.316Z,1.13
2022-11-21T01:29:21.127Z,1.32
2022-11-21T01:31:47.869Z,1.33
2022-11-21T01:34:15.237Z,1.16
2022-11-21T01:36:42.360Z,1.18
2022-11-21T01:39:10.633Z,1.20
2022-11-21T01:41:45.348Z,1.32
2022-11-21T01:44:27.521Z,1.33
2022-11-21T01:46:54.530Z,1.38
2022-11-21T01:49:24.001Z,1.45
2022-11-21T01:51:54.330Z,1.44
2022-11-21T01:54:36.471Z,1.71
2022-11-21T01:57:14.844Z,1.50
2022-11-21T02:00:11.898Z,1.58
2022-11-21T02:02:46.252Z,1.56
2022-11-21T02:05:21.110Z,1.62
2022-11-21T02:07:49.519Z,1.59
2022-11-21T02:10:17.134Z,1.59
2022-11-21T02:12:52.572Z,1.73
2022-11-21T02:15:22.551Z,1.78
2022-11-21T02:17:49.365Z,1.60
2022-11-21T02:20:19.172Z,1.75
2022-11-21T02:23:04.222Z,1.74
2022-11-21T02:25:35.462Z,1.68
2022-11-21T02:28:06.350Z,1.72
2022-11-21T02:30:36.326Z,1.70
2022-11-21T02:33:03.202Z,1.67
2022-11-21T02:35:30.200Z,1.68
2022-11-21T02:38:04.127Z,1.92
2022-11-21T02:40:40.226Z,1.84
2022-11-21T02:43:22.655Z,1.75
2022-11-21T02:45:49.612Z,1.66
2022-11-21T02:48:16.441Z,1.71
2022-11-21T02:50:45.539Z,1.69
2022-11-21T02:53:14.967Z,1.66
2022-11-21T02:55:42.469Z,1.72
2022-11-21T02:58:10.096Z,1.87
2022-11-21T03:00:38.304Z,2.04
2022-11-21T03:03:05.149Z,2.15
2022-11-21T03:05:32.619Z,2.16
2022-11-21T03:07:59.357Z,2.17
2022-11-21T03:10:26.291Z,2.35
2022-11-21T03:13:01.193Z,2.28
2022-11-21T03:15:33.617Z,2.41
2022-11-21T03:18:03.894Z,2.35
2022-11-21T03:20:32.161Z,2.38
2022-11-21T03:22:59.240Z,2.49
2022-11-21T03:25:25.989Z,2.49
2022-11-21T03:27:53.815Z,2.57
2022-11-21T03:30:21.590Z,2.57
2022-11-21T03:32:48.668Z,2.62
2022-11-21T03:35:15.810Z,2.52
2022-11-21T03:37:42.737Z,2.64
2022-11-21T03:40:10.392Z,2.84
2022-11-21T03:42:37.124Z,2.83
2022-11-21T03:45:04.186Z,2.71
2022-11-21T03:47:30.951Z,2.76
2022-11-21T03:49:57.678Z,2.61
2022-11-21T03:52:24.478Z,2.79
2022-11-21T03:54:51.206Z,2.92
2022-11-21T03:57:17.909Z,3.15
2022-11-21T03:59:44.553Z,2.89
2022-11-21T04:02:11.287Z,3.02
2022-11-21T04:04:37.970Z,3.14
2022-11-21T04:07:04.792Z,3.25
2022-11-21T04:09:31.458Z,3.33
2022-11-21T04:11:58.157Z,3.34
2022-11-21T04:14:24.827Z,3.21
2022-11-21T04:16:51.625Z,3.20
2022-11-21T04:19:18.340Z,3.16
2022-11-21T04:21:45.071Z,3.09
2022-11-21T04:24:11.785Z,3.03
2022-11-21T04:26:38.428Z,3.08
2022-11-21T04:29:05.100Z,3.20
2022-11-21T04:31:32.072Z,3.11
2022-11-21T04:33:59.070Z,3.23
2022-11-21T04:36:25.816Z,3.18
2022-11-21T04:38:52.563Z,3.12
2022-11-21T04:41:19.248Z,3.18
2022-11-21T04:43:45.931Z,3.26
2022-11-21T04:46:12.612Z,3.07
2022-11-21T04:48:39.352Z,3.21
2022-11-21T04:51:05.990Z,3.34
2022-11-21T04:53:32.622Z,3.08
2022-11-21T04:56:00.398Z,3.44
2022-11-21T04:58:27.191Z,3.37
2022-11-21T05:00:53.852Z,3.43
2022-11-21T05:03:20.585Z,3.37
2022-11-21T05:05:47.757Z,3.34
2022-11-21T05:08:14.814Z,3.47
2022-11-21T05:11:01.718Z,3.42
2022-11-21T05:13:28.396Z,3.26
2022-11-21T05:15:58.760Z,3.47
2022-11-21T05:18:25.578Z,3.41
2022-11-21T05:20:52.321Z,3.36
2022-11-21T05:23:19.040Z,3.51
2022-11-21T05:25:45.759Z,3.26
2022-11-21T05:28:12.496Z,3.32
2022-11-21T05:30:39.212Z,3.23
2022-11-21T05:33:05.996Z,3.31
2022-11-21T05:35:32.783Z,3.28
2022-11-21T05:37:59.597Z,3.23
2022-11-21T05:40:26.644Z,3.35
2022-11-21T05:43:12.147Z,3.35
2022-11-21T05:45:39.125Z,3.29
2022-11-21T05:48:08.982Z,3.41
2022-11-21T05:50:36.843Z,3.44
2022-11-21T05:53:04.767Z,3.30
2022-11-21T05:55:34.023Z,3.41
2022-11-21T05:58:01.255Z,3.35
2022-11-21T06:00:28.818Z,3.46
2022-11-21T06:03:14.682Z,3.66
2022-11-21T06:05:41.512Z,3.77
2022-11-21T06:08:08.235Z,3.63
2022-11-21T06:10:34.999Z,3.77
2022-11-21T06:13:02.476Z,3.63
2022-11-21T06:15:29.604Z,3.67
2022-11-21T06:17:56.366Z,3.76
2022-11-21T06:20:23.094Z,3.64
2022-11-21T06:22:49.894Z,3.77
2022-11-21T06:25:16.607Z,3.66
2022-11-21T06:27:43.363Z,3.81
2022-11-21T06:30:10.526Z,3.56
2022-11-21T06:32:38.198Z,3.59
2022-11-21T06:35:05.393Z,3.52
2022-11-21T06:37:32.060Z,3.66
2022-11-21T06:39:59.841Z,3.74
2022-11-21T06:42:26.658Z,3.96
2022-11-21T06:44:53.662Z,3.87
2022-11-21T06:47:20.425Z,3.85
2022-11-21T06:49:47.390Z,3.68
2022-11-21T06:52:14.161Z,3.64
2022-11-21T06:54:41.000Z,3.61
2022-11-21T06:57:07.898Z,3.59
2022-11-21T06:59:34.572Z,3.59
2022-11-21T07:02:01.367Z,3.61
2022-11-21T07:04:28.242Z,3.55
2022-11-21T07:06:55.117Z,3.50
2022-11-21T07:09:37.159Z,3.63
2022-11-21T07:12:22.420Z,3.48
2022-11-21T07:14:49.195Z,3.71
2022-11-21T07:17:16.073Z,3.66
2022-11-21T07:19:42.785Z,3.67
2022-11-21T07:22:09.582Z,3.97
2022-11-21T07:24:36.460Z,3.90
2022-11-21T07:27:03.193Z,3.85
2022-11-21T07:29:30.345Z,3.72
2022-11-21T07:31:57.439Z,3.95
2022-11-21T07:34:24.118Z,3.86
2022-11-21T07:36:51.005Z,3.78
2022-11-21T07:39:17.639Z,3.80
2022-11-21T07:41:44.360Z,3.80
2022-11-21T07:44:11.073Z,3.79
2022-11-21T07:46:37.787Z,3.98
2022-11-21T07:49:04.702Z,4.05
2022-11-21T07:51:31.516Z,3.99
2022-11-21T07:53:58.285Z,4.22
2022-11-21T07:56:26.721Z,4.25
2022-11-21T07:58:53.553Z,4.30
2022-11-21T08:01:20.410Z,4.44
2022-11-21T08:03:47.209Z,4.48
2022-11-21T08:06:14.192Z,4.60
2022-11-21T08:08:40.887Z,4.75
2022-11-21T08:11:07.745Z,4.59
2022-11-21T08:13:35.670Z,4.73
2022-11-21T08:16:05.844Z,4.80
2022-11-21T08:18:32.701Z,4.92
2022-11-21T08:21:02.558Z,4.83
2022-11-21T08:23:29.760Z,4.85
2022-11-21T08:25:56.501Z,4.86
2022-11-21T08:28:23.391Z,4.94
2022-11-21T08:30:50.066Z,5.07
2022-11-21T08:33:16.870Z,5.13
2022-11-21T08:35:43.519Z,5.33
2022-11-21T08:38:10.212Z,5.42
2022-11-21T08:40:37.070Z,5.18
2022-11-21T08:43:09.427Z,5.40
2022-11-21T08:45:38.106Z,5.59
2022-11-21T08:48:08.993Z,5.67
2022-11-21T08:50:35.731Z,5.53
2022-11-21T08:53:03.126Z,5.70
2022-11-21T08:55:30.756Z,5.63
2022-11-21T08:57:57.655Z,5.59
2022-11-21T09:00:24.474Z,5.63
2022-11-21T09:02:51.229Z,5.69
2022-11-21T09:05:18.259Z,5.88
2022-11-21T09:07:45.112Z,6.01
2022-11-21T09:10:11.911Z,6.10
2022-11-21T09:12:38.763Z,6.10
2022-11-21T09:15:24.809Z,6.05
2022-11-21T09:18:03.921Z,6.21
2022-11-21T09:20:38.391Z,6.21
2022-11-21T09:23:10.445Z,6.30
2022-11-21T09:25:37.282Z,6.25
2022-11-21T09:28:05.651Z,6.34
2022-11-21T09:30:32.536Z,6.26
2022-11-21T09:33:07.304Z,6.18
2022-11-21T09:35:34.680Z,6.26
2022-11-21T09:38:01.523Z,6.23
2022-11-21T09:40:30.493Z,6.29
2022-11-21T09:43:10.803Z,6.31
2022-11-21T09:45:42.622Z,6.35
2022-11-21T09:48:17.680Z,5.96
2022-11-21T09:50:54.973Z,5.95
2022-11-21T09:53:28.948Z,6.20
2022-11-21T09:56:07.037Z,6.03
2022-11-21T09:58:48.944Z,6.06
2022-11-21T10:01:17.310Z,6.10
2022-11-21T10:03:47.408Z,6.12
2022-11-21T10:06:22.079Z,6.27
2022-11-21T10:09:28.598Z,5.99
2022-11-21T10:12:13.910Z,6.02
2022-11-21T10:14:49.733Z,6.02
2022-11-21T10:17:37.972Z,5.81
2022-11-21T10:20:16.824Z,5.73
2022-11-21T10:23:11.071Z,5.60
2022-11-21T10:25:39.609Z,5.05
2022-11-21T10:28:28.186Z,4.79
2022-11-21T10:30:58.845Z,4.95
2022-11-21T10:33:32.809Z,5.05
2022-11-21T10:36:05.888Z,5.17
2022-11-21T10:38:38.621Z,5.15
2022-11-21T10:41:13.896Z,5.19
2022-11-21T10:44:23.656Z,5.12
2022-11-21T10:47:00.943Z,5.30
2022-11-21T10:49:30.272Z,5.35
2022-11-21T10:52:12.181Z,5.28
2022-11-21T10:55:03.672Z,5.48
2022-11-21T10:57:46.931Z,5.54
2022-11-21T11:00:15.620Z,5.62
2022-11-21T11:02:57.682Z,5.79
2022-11-21T11:05:29.466Z,5.70
2022-11-21T11:08:11.132Z,5.75
2022-11-21T11:10:40.053Z,5.65
2022-11-21T11:13:46.881Z,5.51
2022-11-21T11:16:19.309Z,5.49
2022-11-21T11:18:56.670Z,5.60
2022-11-21T11:21:29.229Z,5.64
2022-11-21T11:24:10.063Z,5.89
2022-11-21T11:26:49.525Z,5.91
2022-11-21T11:29:27.578Z,6.01
2022-11-21T11:31:54.479Z,5.97
2022-11-21T11:34:22.244Z,5.98
2022-11-21T11:37:11.179Z,6.04
2022-11-21T11:39:48.007Z,6.05
2022-11-21T11:42:56.412Z,6.02
2022-11-21T11:46:06.393Z,5.95
2022-11-21T11:48:56.631Z,6.18
2022-11-21T11:51:30.590Z,6.51
2022-11-21T11:54:03.941Z,6.72
2022-11-21T11:56:37.144Z,6.90
2022-11-21T11:59:10.041Z,7.01
2022-11-21T12:01:49.629Z,6.81
2022-11-21T12:04:22.037Z,6.87
2022-11-21T12:10:20.981Z,7.06
2022-11-21T12:13:02.548Z,7.03
2022-11-21T12:15:50.120Z,6.95
2022-11-21T12:18:19.885Z,7.22
2022-11-21T12:21:01.829Z,7.07
2022-11-21T12:23:40.550Z,7.03
2022-11-21T12:26:45.101Z,6.87
2022-11-21T12:29:15.243Z,6.86
2022-11-21T12:31:47.759Z,6.73
2022-11-21T12:34:14.410Z,6.69
2022-11-21T12:36:47.184Z,6.53
2022-11-21T12:39:32.490Z,6.76
2022-11-21T12:43:03.011Z,6.55
2022-11-21T12:45:29.651Z,6.45
2022-11-21T12:48:40.087Z,6.50
2022-11-21T12:51:49.357Z,6.58
2022-11-21T12:54:34.606Z,6.76
2022-11-21T12:57:14.317Z,6.70
2022-11-21T13:00:12.498Z,6.33
2022-11-21T13:02:54.904Z,6.45
2022-11-21T13:05:29.468Z,6.58
2022-11-21T13:08:03.797Z,6.66
2022-11-21T13:10:32.023Z,6.59
2022-11-21T13:13:26.164Z,6.74
2022-11-21T13:16:01.693Z,6.72
2022-11-21T13:18:44.579Z,6.70
2022-11-21T13:21:49.260Z,6.87
2022-11-21T13:24:47.809Z,6.67
2022-11-21T13:27:33.554Z,6.63
2022-11-21T13:30:07.738Z,6.52
2022-11-21T13:32:38.832Z,6.61
2022-11-21T13:35:14.922Z,6.38
2022-11-21T13:38:02.341Z,5.97
2022-11-21T13:40:31.915Z,6.15
2022-11-21T13:43:32.755Z,6.23
2022-11-21T13:46:00.434Z,6.16
2022-11-21T13:48:44.811Z,6.12
2022-11-21T13:51:14.590Z,6.20
2022-11-21T13:53:59.385Z,6.33
2022-11-21T13:56:37.569Z,6.38
2022-11-21T13:59:17.415Z,6.18
2022-11-21T14:01:56.994Z,6.27
2022-11-21T14:05:05.734Z,6.11
2022-11-21T14:07:38.672Z,6.17
2022-11-21T14:10:24.327Z,6.33
2022-11-21T14:12:53.851Z,6.16
2022-11-21T14:15:52.014Z,5.94
2022-11-21T14:18:38.976Z,6.17
2022-11-21T14:21:28.619Z,5.85
2022-11-21T14:24:18.739Z,5.82
2022-11-21T14:27:06.045Z,5.83
2022-11-21T14:29:53.092Z,5.62
2022-11-21T14:32:40.681Z,5.45
2022-11-21T14:35:27.701Z,5.37
2022-11-21T14:38:14.952Z,5.39
2022-11-21T14:41:26.663Z,5.19
2022-11-21T14:44:18.926Z,5.18
2022-11-21T14:47:18.469Z,4.99
2022-11-21T14:50:24.675Z,4.75
2022-11-21T14:53:12.126Z,4.66
2022-11-21T14:56:01.733Z,4.64
2022-11-21T14:58:50.715Z,4.38
2022-11-21T15:01:37.739Z,4.25
2022-11-21T15:04:35.047Z,4.19
2022-11-21T15:07:32.116Z,4.02
2022-11-21T15:10:29.467Z,3.93
2022-11-21T15:13:20.378Z,3.83
2022-11-21T15:16:07.529Z,3.68
2022-11-21T15:18:55.024Z,3.67
2022-11-21T15:21:46.420Z,3.53
2022-11-21T15:24:43.105Z,3.42
2022-11-21T15:27:32.641Z,3.25
2022-11-21T15:30:24.414Z,3.50
2022-11-21T15:33:16.968Z,3.26
2022-11-21T15:36:14.031Z,3.04
2022-11-21T15:39:05.508Z,2.93
2022-11-21T15:41:52.569Z,2.80
2022-11-21T15:44:58.451Z,2.66
2022-11-21T15:47:45.467Z,2.61
2022-11-21T15:50:34.874Z,2.41
2022-11-21T15:53:22.112Z,2.43
2022-11-21T15:56:22.712Z,2.38
2022-11-21T15:59:10.383Z,2.26
2022-11-21T16:01:57.435Z,2.26
2022-11-21T16:04:44.546Z,2.20
2022-11-21T16:07:31.632Z,1.99
2022-11-21T16:10:26.157Z,1.91
2022-11-21T16:13:14.850Z,1.82
2022-11-21T16:16:02.601Z,1.85
2022-11-21T16:18:50.501Z,1.86
2022-11-21T16:21:38.130Z,1.77
2022-11-21T16:24:25.488Z,1.73
2022-11-21T16:27:13.017Z,1.92
2022-11-21T16:30:00.558Z,1.93
2022-11-21T16:32:47.679Z,1.75
2022-11-21T16:35:38.151Z,1.55
2022-11-21T16:38:29.463Z,1.49
2022-11-21T16:41:22.207Z,1.28
2022-11-21T16:44:16.646Z,1.38
2022-11-21T16:47:08.304Z,1.29
2022-11-21T16:49:56.433Z,1.21
2022-11-21T16:52:44.686Z,1.18
2022-11-21T16:55:32.550Z,1.06
2022-11-21T16:58:19.760Z,1.04
2022-11-21T17:01:18.924Z,0.87
2022-11-21T17:04:06.689Z,1.17
2022-11-21T17:06:54.093Z,0.95
2022-11-21T17:09:41.420Z,0.80
2022-11-21T17:12:28.987Z,0.78
2022-11-21T17:15:16.747Z,0.62
2022-11-21T17:18:05.436Z,0.66
2022-11-21T17:20:53.119Z,0.65
2022-11-21T17:23:43.295Z,0.63
2022-11-21T17:26:31.193Z,0.55
2022-11-21T17:29:19.560Z,0.52
2022-11-21T17:32:08.611Z,0.58
2022-11-21T17:34:55.943Z,0.43
2022-11-21T17:37:43.509Z,0.34
2022-11-21T17:40:31.285Z,0.40
2022-11-21T17:43:19.138Z,0.43
2022-11-21T17:46:11.379Z,0.31
2022-11-21T17:48:59.731Z,0.28
2022-11-21T17:51:47.467Z,0.10
2022-11-21T17:54:36.819Z,0.10
2022-11-21T17:57:24.398Z,0.05
2022-11-21T18:00:12.423Z,-0.07
2022-11-21T18:03:01.588Z,0.03
2022-11-21T18:05:51.772Z,0.00
2022-11-21T18:08:40.666Z,0.08
2022-11-21T18:11:39.153Z,-0.03
2022-11-21T18:14:28.227Z,-0.03
2022-11-21T18:17:16.107Z,-0.25
2022-11-21T18:20:03.598Z,-0.23
2022-11-21T18:22:52.113Z,-0.26
2022-11-21T18:25:40.245Z,-0.38
2022-11-21T18:28:28.066Z,-0.39
2022-11-21T18:31:21.056Z,-0.54
2022-11-21T18:34:14.212Z,-0.59
2022-11-21T18:37:02.318Z,-0.52
2022-11-21T18:39:50.077Z,-0.53
2022-11-21T18:42:37.872Z,-0.41
2022-11-21T18:45:31.700Z,-0.55
2022-11-21T18:48:19.684Z,-0.68
2022-11-21T18:51:11.826Z,-0.45
2022-11-21T18:54:07.525Z,-0.41
2022-11-21T18:56:57.199Z,-0.47
2022-11-21T18:59:45.146Z,-0.46
2022-11-21T19:02:33.150Z,-0.45
2022-11-21T19:05:21.066Z,-0.46
2022-11-21T19:08:09.361Z,-0.42
2022-11-21T19:10:57.107Z,-0.61
2022-11-21T19:13:46.447Z,-0.50
2022-11-21T19:16:34.485Z,-0.52
2022-11-21T19:19:37.471Z,-0.44
2022-11-21T19:22:27.057Z,-0.43
2022-11-21T19:25:15.068Z,-0.42
2022-11-21T19:28:06.128Z,-0.47
2022-11-21T19:30:53.760Z,-0.43
2022-11-21T19:33:41.604Z,-0.25
2022-11-21T19:36:29.342Z,-0.35
2022-11-21T19:39:20.969Z,-0.25
2022-11-21T19:42:08.612Z,-0.13
2022-11-21T19:44:57.370Z,-0.18
2022-11-21T19:47:47.434Z,-0.18
2022-11-21T19:50:35.039Z,-0.18
2022-11-21T19:53:23.613Z,-0.28
2022-11-21T19:56:19.127Z,-0.45
2022-11-21T19:59:07.040Z,-0.36
2022-11-21T20:01:56.306Z,-0.57
2022-11-21T20:04:45.219Z,-0.57
2022-11-21T20:07:35.153Z,-0.59
2022-11-21T20:10:24.648Z,-0.60
2022-11-21T20:13:12.569Z,-0.68
2022-11-21T20:16:01.254Z,-0.73
2022-11-21T20:18:49.431Z,-0.77
2022-11-21T20:21:39.812Z,-0.77
2022-11-21T20:24:28.481Z,-0.78
2022-11-21T20:27:16.674Z,-0.84
2022-11-21T20:30:06.980Z,-0.81
2022-11-21T20:32:54.626Z,-0.95
2022-11-21T20:35:46.810Z,-0.95
2022-11-21T20:38:34.989Z,-1.03
2022-11-21T20:41:24.959Z,-1.08
2022-11-21T20:47:26.747Z,-1.39
2022-11-21T20:50:31.376Z,-1.32
2022-11-21T20:53:51.444Z,-1.43
2022-11-21T20:56:34.948Z,-1.34
2022-11-21T20:59:22.906Z,-1.47
2022-11-21T21:02:14.589Z,-1.49
2022-11-21T21:05:02.161Z,-1.54
2022-11-21T21:07:49.538Z,-1.57
2022-11-21T21:11:04.002Z,-1.66
2022-11-21T21:13:47.331Z,-1.73
2022-11-21T21:16:35.771Z,-1.63
2022-11-21T21:19:22.914Z,-1.57
2022-11-21T21:22:10.052Z,-1.45
2022-11-21T21:24:57.212Z,-1.58
2022-11-21T21:27:48.337Z,-1.63
2022-11-21T21:30:39.102Z,-1.77
2022-11-21T21:33:26.173Z,-1.77
2022-11-21T21:36:19.138Z,-1.76
2022-11-21T21:39:06.695Z,-1.89
2022-11-21T21:41:53.891Z,-1.63
2022-11-21T21:44:40.872Z,-1.66
2022-11-21T21:47:28.354Z,-1.65
2022-11-21T21:50:16.051Z,-1.80
2022-11-21T21:53:03.462Z,-1.77
2022-11-21T21:55:50.473Z,-1.72
2022-11-21T21:58:39.954Z,-1.71
2022-11-21T22:01:29.397Z,-1.70
2022-11-21T22:04:16.520Z,-1.73
2022-11-21T22:07:05.593Z,-1.68
2022-11-21T22:09:52.678Z,-1.65
2022-11-21T22:12:43.821Z,-1.72
2022-11-21T22:15:31.247Z,-1.79
2022-11-21T22:18:18.328Z,-1.80
2022-11-21T22:21:16.108Z,-1.77
2022-11-21T22:24:24.906Z,-1.66
2022-11-21T22:27:12.205Z,-1.78
2022-11-21T22:29:59.268Z,-1.83
2022-11-21T22:32:46.340Z,-1.84
2022-11-21T22:35:34.621Z,-1.63
2022-11-21T22:38:21.750Z,-1.60
2022-11-21T22:41:15.510Z,-1.56
2022-11-21T22:44:03.036Z,-1.69
2022-11-21T22:46:50.076Z,-1.77
2022-11-21T22:49:37.124Z,-1.63
2022-11-21T22:52:24.349Z,-1.65
2022-11-21T22:55:11.457Z,-1.71
2022-11-21T22:57:58.632Z,-1.60
2022-11-21T23:00:45.670Z,-1.43
2022-11-21T23:03:33.787Z,-1.52
2022-11-21T23:06:25.494Z,-1.15
2022-11-21T23:09:12.530Z,-1.00
2022-11-21T23:11:59.643Z,-0.91
2022-11-21T23:14:46.731Z,-0.74
2022-11-21T23:17:33.743Z,-0.76
2022-11-21T23:20:20.727Z,-1.04
2022-11-21T23:23:07.774Z,-0.99
2022-11-21T23:25:54.923Z,-0.81
2022-11-21T23:28:41.950Z,-0.87
2022-11-21T23:31:29.062Z,-0.96
2022-11-21T23:34:16.166Z,-1.09
2022-11-21T23:37:03.154Z,-1.14
2022-11-21T23:39:50.296Z,-1.34
2022-11-21T23:42:37.332Z,-1.42
2022-11-21T23:45:24.407Z,-1.43
2022-11-21T23:48:11.952Z,-1.51
2022-11-21T23:50:58.996Z,-1.55
2022-11-21T23:53:45.983Z,-1.77
2022-11-21T23:56:33.069Z,-1.84
2022-11-21T23:59:20.136Z,-1.37
